createdAt,value
2023-02-17T00:01:31.614Z,100266.41
2023-02-17T00:03:59.502Z,100270.69
2023-02-17T00:06:29.476Z,100278.84
2023-02-17T00:08:56.923Z,100283.53
2023-02-17T00:11:24.817Z,100277.03
2023-02-17T00:13:55.201Z,100275.09
2023-02-17T00:16:26.004Z,100264.75
2023-02-17T00:19:02.497Z,100261.88
2023-02-17T00:21:32.086Z,100268.69
2023-02-17T00:24:00.206Z,100258.09
2023-02-17T00:26:27.942Z,100267.63
2023-02-17T00:28:55.193Z,100254.56
2023-02-17T00:31:24.155Z,100259.81
2023-02-17T00:33:55.819Z,100260.72
2023-02-17T00:36:25.247Z,100263.19
2023-02-17T00:38:55.253Z,100253.31
2023-02-17T00:41:23.610Z,100245.81
2023-02-17T00:43:50.945Z,100244.50
2023-02-17T00:46:18.673Z,100233.91
2023-02-17T00:48:47.004Z,100242.56
2023-02-17T00:51:16.626Z,100244.91
2023-02-17T00:53:44.669Z,100228.13
2023-02-17T00:56:12.960Z,100240.19
2023-02-17T00:58:41.625Z,100220.31
2023-02-17T01:01:10.635Z,100225.16
2023-02-17T01:03:42.283Z,100211.31
2023-02-17T01:06:15.498Z,100211.00
2023-02-17T01:08:42.733Z,100209.81
2023-02-17T01:11:18.071Z,100209.16
2023-02-17T01:13:45.372Z,100204.94
2023-02-17T01:16:25.307Z,100203.94
2023-02-17T01:18:52.962Z,100207.91
2023-02-17T01:21:26.318Z,100212.50
2023-02-17T01:23:56.226Z,100194.03
2023-02-17T01:26:26.491Z,100202.63
2023-02-17T01:28:54.661Z,100193.22
2023-02-17T01:31:23.105Z,100208.00
2023-02-17T01:33:50.387Z,100198.00
2023-02-17T01:36:19.467Z,100199.09
2023-02-17T01:38:46.817Z,100196.31
2023-02-17T01:41:15.838Z,100189.56
2023-02-17T01:43:43.705Z,100180.81
2023-02-17T01:46:11.238Z,100195.56
2023-02-17T01:48:39.170Z,100194.16
2023-02-17T01:51:15.394Z,100203.81
2023-02-17T01:53:55.407Z,100193.44
2023-02-17T01:56:24.972Z,100199.59
2023-02-17T01:58:59.993Z,100188.56
2023-02-17T02:01:30.144Z,100192.47
2023-02-17T02:04:00.616Z,100189.75
2023-02-17T02:06:29.877Z,100188.72
2023-02-17T02:09:15.596Z,100184.41
2023-02-17T02:11:43.147Z,100187.06
2023-02-17T02:14:11.475Z,100174.47
2023-02-17T02:17:03.649Z,100176.22
2023-02-17T02:19:49.626Z,100184.72
2023-02-17T02:22:54.739Z,100183.22
2023-02-17T02:25:43.268Z,100182.25
2023-02-17T02:28:38.794Z,100173.91
2023-02-17T02:31:27.505Z,100174.25
2023-02-17T02:34:06.743Z,100167.19
2023-02-17T02:36:58.862Z,100156.28
2023-02-17T02:39:34.502Z,100164.47
2023-02-17T02:42:09.243Z,100149.56
2023-02-17T02:44:37.130Z,100148.38
2023-02-17T02:47:42.354Z,100146.75
2023-02-17T02:50:14.668Z,100138.34
2023-02-17T02:53:17.348Z,100144.44
2023-02-17T02:55:47.935Z,100145.75
2023-02-17T02:58:24.423Z,100143.63
2023-02-17T03:01:05.161Z,100133.28
2023-02-17T03:03:49.107Z,100126.56
2023-02-17T03:06:29.566Z,100122.56
2023-02-17T03:09:05.636Z,100124.47
2023-02-17T03:11:33.412Z,100109.91
2023-02-17T03:14:10.065Z,100106.25
2023-02-17T03:16:39.032Z,100110.97
2023-02-17T03:19:06.893Z,100106.00
2023-02-17T03:21:39.256Z,100104.06
2023-02-17T03:24:07.238Z,100105.78
2023-02-17T03:26:34.867Z,100104.91
2023-02-17T03:29:02.212Z,100101.09
2023-02-17T03:31:31.001Z,100111.66
2023-02-17T03:33:59.646Z,100104.03
2023-02-17T03:36:27.478Z,100090.50
2023-02-17T03:38:54.690Z,100094.75
2023-02-17T03:41:22.520Z,100091.09
2023-02-17T03:43:50.206Z,100087.44
2023-02-17T03:46:18.634Z,100101.81
2023-02-17T03:48:45.929Z,100102.94
2023-02-17T03:51:15.660Z,100102.09
2023-02-17T03:53:43.880Z,100090.22
2023-02-17T03:56:12.358Z,100092.22
2023-02-17T03:58:40.791Z,100095.72
2023-02-17T04:01:10.561Z,100085.72
2023-02-17T04:03:38.881Z,100087.25
2023-02-17T04:06:07.487Z,100094.75
2023-02-17T04:08:35.262Z,100094.03
2023-02-17T04:11:04.325Z,100094.47
2023-02-17T04:13:32.113Z,100083.19
2023-02-17T04:16:01.535Z,100079.94
2023-02-17T04:18:28.847Z,100079.50
2023-02-17T04:20:56.432Z,100072.16
2023-02-17T04:23:24.073Z,100074.13
2023-02-17T04:25:51.667Z,100072.72
2023-02-17T04:28:19.057Z,100070.84
2023-02-17T04:30:48.436Z,100080.47
2023-02-17T04:33:16.533Z,100071.81
2023-02-17T04:35:44.107Z,100074.22
2023-02-17T04:38:12.336Z,100079.41
2023-02-17T04:40:39.915Z,100080.44
2023-02-17T04:43:08.559Z,100075.81
2023-02-17T04:45:37.578Z,100079.41
2023-02-17T04:48:04.861Z,100069.00
2023-02-17T04:50:32.483Z,100053.94
2023-02-17T04:52:59.797Z,100062.38
2023-02-17T04:55:27.461Z,100057.56
2023-02-17T04:57:54.717Z,100046.03
2023-02-17T05:00:22.451Z,100036.72
2023-02-17T05:02:49.659Z,100046.03
2023-02-17T05:05:18.955Z,100052.38
2023-02-17T05:07:46.967Z,100050.97
2023-02-17T05:10:15.627Z,100051.25
2023-02-17T05:12:43.398Z,100045.88
2023-02-17T05:15:12.315Z,100051.13
2023-02-17T05:17:39.672Z,100042.94
2023-02-17T05:20:08.157Z,100036.31
2023-02-17T05:22:35.835Z,100036.94
2023-02-17T05:25:03.702Z,100038.25
2023-02-17T05:27:31.381Z,100026.94
2023-02-17T05:29:58.991Z,100043.88
2023-02-17T05:32:26.298Z,100039.38
2023-02-17T05:34:54.033Z,100033.03
2023-02-17T05:37:21.378Z,100041.53
2023-02-17T05:39:48.928Z,100035.88
2023-02-17T05:42:16.199Z,100039.97
2023-02-17T05:44:43.843Z,100044.66
2023-02-17T05:47:11.143Z,100027.78
2023-02-17T05:49:38.660Z,100028.94
2023-02-17T05:52:05.965Z,100021.38
2023-02-17T05:54:33.504Z,100030.00
2023-02-17T05:57:00.737Z,100019.16
2023-02-17T05:59:28.488Z,100009.41
2023-02-17T06:01:55.925Z,100004.31
2023-02-17T06:04:23.576Z,100012.50
2023-02-17T06:06:51.056Z,100007.63
2023-02-17T06:09:18.642Z,100008.03
2023-02-17T06:11:45.855Z,100004.81
2023-02-17T06:14:13.373Z,100000.72
2023-02-17T06:16:40.599Z,99989.72
2023-02-17T06:19:08.141Z,99999.75
2023-02-17T06:21:35.425Z,99993.72
2023-02-17T06:24:03.089Z,99980.59
2023-02-17T06:26:30.283Z,99984.00
2023-02-17T06:28:57.846Z,99978.72
2023-02-17T06:31:25.292Z,99980.00
2023-02-17T06:33:53.310Z,99978.38
2023-02-17T06:36:20.538Z,99983.34
2023-02-17T06:38:48.083Z,99989.38
2023-02-17T06:41:15.336Z,99971.06
2023-02-17T06:43:42.891Z,99975.34
2023-02-17T06:46:10.472Z,99983.22
2023-02-17T06:48:38.093Z,99988.31
2023-02-17T06:51:05.529Z,99984.38
2023-02-17T06:53:33.106Z,99985.63
2023-02-17T06:56:00.337Z,99992.84
2023-02-17T06:58:27.952Z,99983.38
2023-02-17T07:00:55.187Z,99979.41
2023-02-17T07:03:22.745Z,99974.75
2023-02-17T07:05:50.028Z,99962.19
2023-02-17T07:08:17.681Z,99956.38
2023-02-17T07:10:44.911Z,99959.16
2023-02-17T07:13:12.416Z,99960.59
2023-02-17T07:15:39.642Z,99955.28
2023-02-17T07:18:07.443Z,99953.56
2023-02-17T07:20:34.736Z,99946.66
2023-02-17T07:23:02.368Z,99956.38
2023-02-17T07:25:29.898Z,99956.66
2023-02-17T07:27:57.479Z,99949.81
2023-02-17T07:30:24.747Z,99951.53
2023-02-17T07:32:52.278Z,99948.03
2023-02-17T07:35:19.495Z,99942.91
2023-02-17T07:37:47.081Z,99948.63
2023-02-17T07:40:14.396Z,99942.81
2023-02-17T07:42:41.961Z,99925.06
2023-02-17T07:45:09.431Z,99920.56
2023-02-17T07:47:37.076Z,99921.72
2023-02-17T07:50:04.964Z,99915.47
2023-02-17T07:52:32.534Z,99907.94
2023-02-17T07:54:59.882Z,99902.44
2023-02-17T07:57:27.656Z,99898.28
2023-02-17T07:59:54.872Z,99889.03
2023-02-17T08:02:22.780Z,99887.66
2023-02-17T08:04:51.866Z,99885.69
2023-02-17T08:07:19.476Z,99879.59
2023-02-17T08:10:05.998Z,99862.06
2023-02-17T08:13:09.073Z,99864.47
2023-02-17T08:15:36.337Z,99862.94
2023-02-17T08:18:05.086Z,99859.47
2023-02-17T08:20:34.281Z,99854.78
2023-02-17T08:23:03.754Z,99850.72
2023-02-17T08:25:35.479Z,99844.84
2023-02-17T08:28:05.732Z,99843.84
2023-02-17T08:30:36.628Z,99854.84
2023-02-17T08:33:05.654Z,99842.59
2023-02-17T08:35:33.206Z,99843.75
2023-02-17T08:38:00.740Z,99840.09
2023-02-17T08:40:29.181Z,99845.34
2023-02-17T08:42:56.764Z,99838.41
2023-02-17T08:45:24.158Z,99843.09
2023-02-17T08:47:51.768Z,99826.22
2023-02-17T08:50:20.276Z,99830.91
2023-02-17T08:52:47.893Z,99818.28
2023-02-17T08:55:15.354Z,99824.09
2023-02-17T08:57:42.956Z,99815.81
2023-02-17T09:00:11.093Z,99808.88
2023-02-17T09:02:38.756Z,99812.38
2023-02-17T09:05:06.350Z,99789.41
2023-02-17T09:07:33.905Z,99800.56
2023-02-17T09:10:01.402Z,99795.28
2023-02-17T09:12:29.072Z,99795.22
2023-02-17T09:14:56.293Z,99785.78
2023-02-17T09:17:24.352Z,99799.94
2023-02-17T09:19:51.871Z,99786.31
2023-02-17T09:22:31.715Z,99778.56
2023-02-17T09:24:59.771Z,99769.69
2023-02-17T09:27:27.309Z,99777.16
2023-02-17T09:29:54.637Z,99776.50
2023-02-17T09:32:22.560Z,99779.78
2023-02-17T09:34:55.776Z,99768.44
2023-02-17T09:37:24.799Z,99767.13
2023-02-17T09:39:52.244Z,99758.81
2023-02-17T09:42:23.219Z,99764.72
2023-02-17T09:44:57.028Z,99750.84
2023-02-17T09:47:32.364Z,99740.47
2023-02-17T09:50:05.913Z,99742.31
2023-02-17T09:52:36.582Z,99735.41
2023-02-17T09:55:27.973Z,99723.06
2023-02-17T09:58:04.274Z,99720.19
2023-02-17T10:00:40.521Z,99699.13
2023-02-17T10:03:13.228Z,99706.50
2023-02-17T10:05:47.379Z,99694.00
2023-02-17T10:08:23.416Z,99686.88
2023-02-17T10:11:08.686Z,99677.16
2023-02-17T10:13:37.789Z,99679.66
2023-02-17T10:16:10.309Z,99674.44
2023-02-17T10:18:47.663Z,99667.31
2023-02-17T10:21:24.173Z,99668.09
2023-02-17T10:23:51.979Z,99654.13
2023-02-17T10:26:48.887Z,99644.16
2023-02-17T10:30:07.044Z,99643.00
2023-02-17T10:32:50.796Z,99633.66
2023-02-17T10:35:27.540Z,99623.31
2023-02-17T10:38:16.443Z,99627.97
2023-02-17T10:40:47.535Z,99615.16
2023-02-17T10:43:22.836Z,99614.94
2023-02-17T10:45:51.453Z,99584.91
2023-02-17T10:48:22.629Z,99590.41
2023-02-17T10:50:50.890Z,99578.31
2023-02-17T10:53:21.499Z,99561.50
2023-02-17T10:56:07.526Z,99562.03
2023-02-17T10:58:50.049Z,99547.94
2023-02-17T11:01:18.002Z,99530.28
2023-02-17T11:03:45.401Z,99534.44
2023-02-17T11:06:23.492Z,99524.81
2023-02-17T11:08:54.334Z,99523.22
2023-02-17T11:11:30.664Z,99517.72
2023-02-17T11:14:07.029Z,99528.41
2023-02-17T11:16:41.726Z,99509.44
2023-02-17T11:19:28.461Z,99489.47
2023-02-17T11:21:58.824Z,99483.97
2023-02-17T11:24:27.979Z,99500.28
2023-02-17T11:27:05.418Z,99482.00
2023-02-17T11:29:34.197Z,99477.09
2023-02-17T11:32:09.122Z,99462.19
2023-02-17T11:34:40.036Z,99458.88
2023-02-17T11:37:13.292Z,99436.69
2023-02-17T11:39:46.652Z,99434.72
2023-02-17T11:42:24.697Z,99429.94
2023-02-17T11:44:54.899Z,99427.69
2023-02-17T11:47:51.625Z,99420.44
2023-02-17T11:50:43.941Z,99406.25
2023-02-17T11:53:27.179Z,99405.59
2023-02-17T11:56:08.382Z,99397.66
2023-02-17T11:58:42.095Z,99391.94
2023-02-17T12:01:34.531Z,99378.88
2023-02-17T12:04:21.538Z,99374.03
2023-02-17T12:07:26.824Z,99369.19
2023-02-17T12:10:15.531Z,99367.88
2023-02-17T12:12:48.763Z,99360.66
2023-02-17T12:15:34.673Z,99362.94
2023-02-17T12:18:24.771Z,99361.31
2023-02-17T12:21:10.883Z,99356.75
2023-02-17T12:23:57.435Z,99341.31
2023-02-17T12:26:36.923Z,99338.38
2023-02-17T12:29:28.610Z,99336.41
2023-02-17T12:32:19.098Z,99328.97
2023-02-17T12:34:59.567Z,99313.16
2023-02-17T12:37:33.631Z,99322.41
2023-02-17T12:40:15.653Z,99303.16
2023-02-17T12:42:53.804Z,99288.06
2023-02-17T12:45:24.787Z,99280.94
2023-02-17T12:47:55.645Z,99273.19
2023-02-17T12:50:35.148Z,99273.19
2023-02-17T12:53:08.767Z,99255.84
2023-02-17T12:55:49.009Z,99253.28
2023-02-17T12:58:20.274Z,99262.13
2023-02-17T13:00:52.755Z,99254.97
2023-02-17T13:03:20.642Z,99237.44
2023-02-17T13:05:52.285Z,99238.72
2023-02-17T13:08:38.992Z,99231.84
2023-02-17T13:11:11.163Z,99217.31
2023-02-17T13:13:39.182Z,99210.75
2023-02-17T13:16:14.958Z,99188.84
2023-02-17T13:18:50.388Z,99174.78
2023-02-17T13:21:24.975Z,99184.34
2023-02-17T13:24:12.960Z,99159.84
2023-02-17T13:26:44.658Z,99158.94
2023-02-17T13:29:24.313Z,99161.31
2023-02-17T13:32:02.379Z,99143.88
2023-02-17T13:34:39.469Z,99127.13
2023-02-17T13:37:33.124Z,99109.72
2023-02-17T13:40:03.205Z,99091.50
2023-02-17T13:42:34.904Z,99077.84
2023-02-17T13:45:10.750Z,99079.84
2023-02-17T13:47:41.186Z,99066.78
2023-02-17T13:50:37.097Z,99067.66
2023-02-17T13:53:28.688Z,99070.53
2023-02-17T13:56:00.483Z,99061.31
2023-02-17T13:58:33.055Z,99046.38
2023-02-17T14:01:02.434Z,99056.06
2023-02-17T14:03:46.792Z,99050.53
2023-02-17T14:06:23.633Z,99035.63
2023-02-17T14:08:51.148Z,99038.00
2023-02-17T14:11:21.554Z,99036.41
2023-02-17T14:13:51.258Z,99039.84
2023-02-17T14:16:33.111Z,99030.47
2023-02-17T14:19:10.269Z,99038.38
2023-02-17T14:21:40.430Z,99043.06
2023-02-17T14:24:10.274Z,99018.94
2023-02-17T14:26:42.429Z,99024.97
2023-02-17T14:29:12.812Z,99021.44
2023-02-17T14:31:44.078Z,99013.06
2023-02-17T14:34:32.656Z,98993.78
2023-02-17T14:37:23.223Z,98967.63
2023-02-17T14:39:50.922Z,98946.50
2023-02-17T14:42:18.601Z,98937.63
2023-02-17T14:44:45.850Z,98935.59
2023-02-17T14:47:13.395Z,98933.28
2023-02-17T14:49:40.638Z,98920.34
2023-02-17T14:52:20.552Z,98896.91
2023-02-17T14:54:49.039Z,98882.50
2023-02-17T14:57:17.744Z,98894.91
2023-02-17T14:59:45.012Z,98881.94
2023-02-17T15:02:18.040Z,98861.69
2023-02-17T15:04:45.652Z,98858.03
2023-02-17T15:07:16.300Z,98842.25
2023-02-17T15:09:48.173Z,98847.31
2023-02-17T15:12:21.185Z,98844.97
2023-02-17T15:14:48.650Z,98830.47
2023-02-17T15:17:16.577Z,98829.91
2023-02-17T15:19:46.586Z,98831.22
2023-02-17T15:22:14.503Z,98815.69
2023-02-17T15:24:42.118Z,98829.91
2023-02-17T15:27:15.178Z,98821.84
2023-02-17T15:29:42.468Z,98800.72
2023-02-17T15:32:20.982Z,98799.19
2023-02-17T15:34:48.432Z,98793.22
2023-02-17T15:37:15.979Z,98789.59
2023-02-17T15:39:43.213Z,98784.13
2023-02-17T15:42:13.838Z,98768.88
2023-02-17T15:44:50.388Z,98772.44
2023-02-17T15:47:20.707Z,98757.47
2023-02-17T15:49:48.095Z,98745.91
2023-02-17T15:52:16.122Z,98742.44
2023-02-17T15:54:44.466Z,98733.34
2023-02-17T15:57:24.033Z,98709.75
2023-02-17T15:59:55.062Z,98707.00
2023-02-17T16:02:25.211Z,98679.19
2023-02-17T16:04:52.494Z,98682.03
2023-02-17T16:07:19.999Z,98672.44
2023-02-17T16:09:47.292Z,98666.13
2023-02-17T16:12:19.024Z,98666.59
2023-02-17T16:14:46.400Z,98668.13
2023-02-17T16:17:16.710Z,98678.56
2023-02-17T16:19:44.441Z,98661.00
2023-02-17T16:22:12.266Z,98660.28
2023-02-17T16:24:39.506Z,98665.91
2023-02-17T16:27:09.627Z,98665.41
2023-02-17T16:29:36.942Z,98663.41
2023-02-17T16:32:04.740Z,98658.72
2023-02-17T16:34:34.847Z,98648.59
2023-02-17T16:37:10.057Z,98657.84
2023-02-17T16:39:39.432Z,98659.47
2023-02-17T16:42:07.072Z,98652.84
2023-02-17T16:44:34.955Z,98651.97
2023-02-17T16:47:02.872Z,98645.16
2023-02-17T16:49:33.816Z,98637.56
2023-02-17T16:52:07.761Z,98647.66
2023-02-17T16:54:35.826Z,98640.81
2023-02-17T16:57:03.864Z,98640.13
2023-02-17T16:59:31.202Z,98632.72
2023-02-17T17:01:58.932Z,98634.53
2023-02-17T17:04:26.197Z,98626.56
2023-02-17T17:06:53.754Z,98623.50
2023-02-17T17:09:23.854Z,98608.78
2023-02-17T17:11:51.401Z,98613.69
2023-02-17T17:14:21.425Z,98616.94
2023-02-17T17:16:57.479Z,98619.50
2023-02-17T17:19:25.446Z,98600.00
2023-02-17T17:21:52.983Z,98600.28
2023-02-17T17:24:20.474Z,98599.78
2023-02-17T17:26:50.284Z,98607.97
2023-02-17T17:29:19.274Z,98611.38
2023-02-17T17:31:47.560Z,98612.63
2023-02-17T17:34:14.989Z,98607.50
2023-02-17T17:36:45.290Z,98605.28
2023-02-17T17:39:19.089Z,98620.94
2023-02-17T17:41:47.446Z,98612.69
2023-02-17T17:44:15.183Z,98614.13
2023-02-17T17:46:43.386Z,98591.34
2023-02-17T17:49:13.813Z,98619.19
2023-02-17T17:51:41.867Z,98613.94
2023-02-17T17:54:09.234Z,98596.69
2023-02-17T17:56:39.973Z,98601.78
2023-02-17T17:59:07.218Z,98594.06
2023-02-17T18:01:35.140Z,98596.03
2023-02-17T18:04:02.850Z,98584.31
2023-02-17T18:06:37.474Z,98573.88
2023-02-17T18:09:07.771Z,98566.91
2023-02-17T18:11:37.053Z,98558.13
2023-02-17T18:14:08.800Z,98548.47
2023-02-17T18:16:38.637Z,98570.59
2023-02-17T18:19:08.108Z,98575.03
2023-02-17T18:21:36.090Z,98553.00
2023-02-17T18:24:03.684Z,98559.09
2023-02-17T18:26:31.648Z,98568.03
2023-02-17T18:28:59.345Z,98554.63
2023-02-17T18:31:29.492Z,98562.63
2023-02-17T18:33:56.935Z,98564.88
2023-02-17T18:36:27.186Z,98587.00
2023-02-17T18:38:54.637Z,98572.66
2023-02-17T18:41:27.878Z,98562.38
2023-02-17T18:43:56.718Z,98545.25
2023-02-17T18:46:26.766Z,98548.75
2023-02-17T18:48:57.557Z,98572.84
2023-02-17T18:51:27.635Z,98559.75
2023-02-17T18:53:56.825Z,98571.50
2023-02-17T18:56:27.787Z,98567.13
2023-02-17T18:58:55.798Z,98558.38
2023-02-17T19:01:27.174Z,98547.25
2023-02-17T19:03:55.631Z,98543.72
2023-02-17T19:06:26.665Z,98548.00
2023-02-17T19:08:54.389Z,98525.13
2023-02-17T19:11:23.290Z,98545.47
2023-02-17T19:13:51.301Z,98520.38
2023-02-17T19:16:25.040Z,98518.81
2023-02-17T19:18:52.963Z,98494.84
2023-02-17T19:21:21.527Z,98489.19
2023-02-17T19:23:50.241Z,98500.25
2023-02-17T19:26:18.685Z,98541.06
2023-02-17T19:28:46.716Z,98521.03
2023-02-17T19:31:18.047Z,98454.41
2023-02-17T19:33:45.855Z,98491.44
2023-02-17T19:36:19.303Z,98519.56
2023-02-17T19:38:47.760Z,98493.31
2023-02-17T19:41:16.906Z,98529.16
2023-02-17T19:43:45.147Z,98504.63
2023-02-17T19:46:14.515Z,98501.78
2023-02-17T19:48:42.213Z,98503.41
2023-02-17T19:51:13.800Z,98507.81
2023-02-17T19:53:45.714Z,98483.41
2023-02-17T19:56:19.125Z,98451.94
2023-02-17T19:58:47.387Z,98491.28
2023-02-17T20:01:18.193Z,98476.31
2023-02-17T20:03:45.937Z,98486.31
2023-02-17T20:06:32.252Z,98486.22
2023-02-17T20:09:02.074Z,98476.09
2023-02-17T20:11:31.981Z,98466.31
2023-02-17T20:14:01.241Z,98492.41
2023-02-17T20:16:29.766Z,98478.16
2023-02-17T20:18:57.424Z,98486.81
2023-02-17T20:21:28.243Z,98475.44
2023-02-17T20:23:57.374Z,98477.13
2023-02-17T20:26:28.318Z,98444.19
2023-02-17T20:28:56.549Z,98459.50
2023-02-17T20:31:24.595Z,98458.31
2023-02-17T20:33:52.443Z,98450.69
2023-02-17T20:36:22.248Z,98448.97
2023-02-17T20:38:50.233Z,98433.72
2023-02-17T20:41:21.218Z,98431.53
2023-02-17T20:43:49.277Z,98457.28
2023-02-17T20:46:26.260Z,98433.03
2023-02-17T20:48:54.435Z,98452.91
2023-02-17T20:51:22.455Z,98443.81
2023-02-17T20:53:49.889Z,98412.50
2023-02-17T20:56:20.634Z,98445.41
2023-02-17T20:58:48.833Z,98428.19
2023-02-17T21:01:16.604Z,98456.38
2023-02-17T21:03:44.024Z,98444.41
2023-02-17T21:06:20.607Z,98445.47
2023-02-17T21:08:51.772Z,98450.19
2023-02-17T21:11:19.540Z,98419.47
2023-02-17T21:13:47.613Z,98447.38
2023-02-17T21:16:18.037Z,98443.22
2023-02-17T21:18:46.939Z,98411.78
2023-02-17T21:21:15.575Z,98394.22
2023-02-17T21:23:42.969Z,98422.38
2023-02-17T21:26:12.886Z,98407.59
2023-02-17T21:28:40.885Z,98426.94
2023-02-17T21:31:08.732Z,98423.38
2023-02-17T21:33:41.859Z,98437.41
2023-02-17T21:36:11.334Z,98417.72
2023-02-17T21:38:39.010Z,98409.75
2023-02-17T21:41:18.840Z,98413.63
2023-02-17T21:44:05.606Z,98409.22
2023-02-17T21:46:34.334Z,98404.97
2023-02-17T21:49:02.034Z,98402.78
2023-02-17T21:51:30.839Z,98417.00
2023-02-17T21:53:59.397Z,98417.94
2023-02-17T21:56:27.292Z,98414.88
2023-02-17T21:58:55.565Z,98429.22
2023-02-17T22:01:25.111Z,98404.34
2023-02-17T22:03:52.816Z,98430.66
2023-02-17T22:06:38.817Z,98385.63
2023-02-17T22:09:08.675Z,98415.84
2023-02-17T22:11:38.880Z,98374.25
2023-02-17T22:14:10.164Z,98397.06
2023-02-17T22:16:38.353Z,98382.72
2023-02-17T22:19:07.602Z,98385.97
2023-02-17T22:21:35.270Z,98376.47
2023-02-17T22:24:02.835Z,98415.41
2023-02-17T22:26:30.800Z,98385.41
2023-02-17T22:28:58.284Z,98364.97
2023-02-17T22:31:28.615Z,98386.94
2023-02-17T22:33:57.846Z,98398.56
2023-02-17T22:36:27.500Z,98394.16
2023-02-17T22:38:55.058Z,98385.63
2023-02-17T22:41:24.785Z,98372.75
2023-02-17T22:43:54.109Z,98381.88
2023-02-17T22:46:25.005Z,98380.03
2023-02-17T22:48:53.024Z,98370.03
2023-02-17T22:51:24.109Z,98372.50
2023-02-17T22:53:51.958Z,98344.94
2023-02-17T22:56:19.725Z,98375.50
2023-02-17T22:58:47.033Z,98348.19
2023-02-17T23:01:20.737Z,98342.25
2023-02-17T23:03:52.970Z,98378.72
2023-02-17T23:06:27.640Z,98374.84
2023-02-17T23:08:55.623Z,98381.72
2023-02-17T23:11:44.895Z,98375.22
2023-02-17T23:14:14.236Z,98388.56
2023-02-17T23:16:42.237Z,98409.16
2023-02-17T23:19:12.261Z,98393.16
2023-02-17T23:21:46.112Z,98379.75
2023-02-17T23:24:15.274Z,98403.50
2023-02-17T23:26:43.054Z,98390.16
2023-02-17T23:29:11.302Z,98387.47
2023-02-17T23:31:39.257Z,98402.97
2023-02-17T23:34:07.464Z,98408.81
2023-02-17T23:36:35.047Z,98431.06
2023-02-17T23:39:02.608Z,98427.88
2023-02-17T23:41:30.325Z,98360.91
2023-02-17T23:43:57.721Z,98426.69
2023-02-17T23:46:25.423Z,98420.84
2023-02-17T23:48:52.800Z,98392.13
2023-02-17T23:51:20.303Z,98411.19
2023-02-17T23:53:47.639Z,98401.84
2023-02-17T23:56:23.462Z,98396.47
2023-02-17T23:58:51.058Z,98419.38
